Time;durP1;ratioP1;P1;durP2;ratioP2;P2;SDS_P1;SDS_P2;PMS_P1;PMS_P2;Temp;Humidity;BMP_temperature;BMP_pressure;BME280_temperature;BME280_humidity;BME280_pressure;Samples;Min_cycle;Max_cycle;Signal;HPM_P1;HPM_P2
2022/11/23 06:57:09;;;;;;;4.07;0.88;;;;;;;;;;10628043;27;20393;-79
2022/11/23 07:02:11;;;;;;;2.45;1.27;;;;;;;;;;10610222;28;20050;-81
2022/11/23 07:07:12;;;;;;;3.92;0.90;;;;;;;;;;10627131;28;20105;-81
2022/11/23 07:12:13;;;;;;;3.30;1.10;;;;;;;;;;10610120;28;20016;-79
2022/11/23 07:17:14;;;;;;;1.45;0.70;;;;;;;;;;10591374;28;20048;-82
2022/11/23 07:22:15;;;;;;;4.47;1.30;;;;;;;;;;10573724;28;20032;-82
2022/11/23 07:27:16;;;;;;;6.93;1.38;;;;;;;;;;10570119;28;20100;-82
2022/11/23 07:32:17;;;;;;;5.15;1.58;;;;;;;;;;10568794;28;20024;-82
2022/11/23 07:37:18;;;;;;;3.22;1.70;;;;;;;;;;10571926;28;20028;-82
2022/11/23 07:42:19;;;;;;;7.80;2.92;;;;;;;;;;10574197;28;20032;-81
2022/11/23 07:47:21;;;;;;;6.10;1.20;;;;;;;;;;10571664;28;20020;-82
2022/11/23 07:52:22;;;;;;;3.65;1.17;;;;;;;;;;10565352;28;20082;-82
2022/11/23 07:57:23;;;;;;;3.03;1.17;;;;;;;;;;10564294;28;20024;-82
2022/11/23 08:02:24;;;;;;;;;;;;;;;;;;10567088;28;20028;-81
2022/11/23 08:07:25;;;;;;;3.72;0.93;;;;;;;;;;10550249;28;19923;-82
2022/11/23 08:12:26;;;;;;;3.83;1.17;;;;;;;;;;10542198;28;20064;-81
2022/11/23 08:17:27;;;;;;;;;;;;;;;;;;10537800;28;20064;-80
2022/11/23 08:22:28;;;;;;;3.90;1.83;;;;;;;;;;10553359;28;19919;-81
2022/11/23 08:27:29;;;;;;;;;;;;;;;;;;10539163;28;20127;-81
2022/11/23 08:32:30;;;;;;;3.90;1.08;;;;;;;;;;10535649;28;19904;-81
2022/11/23 08:37:31;;;;;;;2.55;0.90;;;;;;;;;;10535517;28;20119;-81
2022/11/23 08:42:32;;;;;;;;;;;;;;;;;;10561659;28;20464;-83
2022/11/23 08:47:33;;;;;;;4.43;1.92;;;;;;;;;;10557542;28;19928;-82
2022/11/23 08:52:34;;;;;;;7.13;3.78;;;;;;;;;;10539637;28;20039;-80
2022/11/23 08:57:35;;;;;;;;;;;;;;;;;;10546538;28;20034;-82
2022/11/23 09:02:36;;;;;;;6.65;4.25;;;;;;;;;;10555185;28;19922;-81
2022/11/23 09:07:37;;;;;;;;;;;;;;;;;;10535911;28;20118;-80
2022/11/23 09:12:39;;;;;;;7.78;3.10;;;;;;;;;;10537788;28;19904;-81
2022/11/23 09:17:40;;;;;;;6.07;2.25;;;;;;;;;;10540615;28;20084;-81
2022/11/23 09:22:42;;;;;;;;;;;;;;;;;;10535071;28;20189;-81
2022/11/23 09:27:44;;;;;;;7.07;2.20;;;;;;;;;;10537654;28;19904;-82
2022/11/23 09:32:45;;;;;;;6.70;2.55;;;;;;;;;;10536210;28;20478;-82
2022/11/23 09:37:46;;;;;;;7.15;2.20;;;;;;;;;;10535589;28;20047;-80
2022/11/23 09:42:47;;;;;;;;;;;;;;;;;;10532648;28;20036;-78
2022/11/23 09:47:48;;;;;;;7.50;1.90;;;;;;;;;;10529515;28;19904;-79
2022/11/23 09:52:50;;;;;;;4.40;1.70;;;;;;;;;;10528965;28;20086;-78
2022/11/23 09:57:56;;;;;;;6.00;2.13;;;;;;;;;;10548567;28;20035;-79
2022/11/23 10:02:57;;;;;;;5.75;1.65;;;;;;;;;;10530366;28;20035;-79
2022/11/23 10:08:10;;;;;;;6.32;1.88;;;;;;;;;;10529685;28;20458;-79
2022/11/23 10:13:20;;;;;;;6.35;2.00;;;;;;;;;;10538744;28;20027;-78
2022/11/23 10:18:37;;;;;;;8.88;1.98;;;;;;;;;;10527553;28;20097;-78
2022/11/23 10:24:05;;;;;;;6.75;1.90;;;;;;;;;;10547546;28;20031;-79
2022/11/23 10:29:12;;;;;;;6.97;2.20;;;;;;;;;;10490877;28;20036;-78
2022/11/23 10:34:15;;;;;;;8.35;2.20;;;;;;;;;;10527641;28;20120;-79
2022/11/23 10:39:16;;;;;;;7.05;2.13;;;;;;;;;;10530178;28;20123;-79
2022/11/23 10:44:17;;;;;;;5.53;1.65;;;;;;;;;;10546778;28;20486;-79
2022/11/23 10:49:20;;;;;;;3.97;1.67;;;;;;;;;;10529545;28;20058;-79
2022/11/23 10:54:21;;;;;;;5.53;1.63;;;;;;;;;;10529544;28;20043;-80
2022/11/23 10:59:36;;;;;;;4.70;1.70;;;;;;;;;;10530202;28;20393;-79
2022/11/23 11:04:37;;;;;;;7.10;1.95;;;;;;;;;;10528833;28;20089;-81
2022/11/23 11:09:38;;;;;;;5.93;1.73;;;;;;;;;;10547424;28;20378;-80
2022/11/23 11:14:54;;;;;;;5.03;1.90;;;;;;;;;;10530089;28;20032;-80
2022/11/23 11:19:55;;;;;;;4.45;1.65;;;;;;;;;;10547506;28;20028;-80
2022/11/23 11:24:56;;;;;;;5.38;1.73;;;;;;;;;;10553914;28;20031;-82
2022/11/23 11:29:58;;;;;;;;;;;;;;;;;;10541793;28;20536;-81
2022/11/23 11:34:59;;;;;;;6.18;1.45;;;;;;;;;;10528427;28;19910;-82
2022/11/23 11:40:03;;;;;;;7.85;1.58;;;;;;;;;;10536202;28;20054;-80
2022/11/23 11:45:06;;;;;;;8.38;1.70;;;;;;;;;;10546068;28;20043;-80
2022/11/23 11:50:27;;;;;;;6.22;2.50;;;;;;;;;;10544887;28;20028;-80
2022/11/23 11:55:28;;;;;;;;;;;;;;;;;;10544999;28;20032;-81
2022/11/23 12:00:30;;;;;;;6.95;1.83;;;;;;;;;;10549287;28;19904;-81
2022/11/23 12:06:00;;;;;;;5.88;1.70;;;;;;;;;;10544702;28;20068;-81
2022/11/23 12:11:03;;;;;;;6.47;1.60;;;;;;;;;;10522975;28;20123;-82
2022/11/23 12:16:23;;;;;;;4.93;1.20;;;;;;;;;;10542085;28;20492;-81
2022/11/23 12:21:50;;;;;;;6.05;1.77;;;;;;;;;;10544551;28;20032;-81
2022/11/23 12:26:57;;;;;;;8.60;2.15;;;;;;;;;;10542083;28;20032;-81
2022/11/23 12:32:21;;;;;;;7.22;1.80;;;;;;;;;;10540719;28;20417;-80
2022/11/23 12:37:25;;;;;;;6.45;1.90;;;;;;;;;;10539157;28;20063;-80
2022/11/23 12:42:35;;;;;;;5.78;1.63;;;;;;;;;;10538414;28;20028;-80
2022/11/23 12:47:55;;;;;;;8.20;1.93;;;;;;;;;;10537809;28;20028;-79
2022/11/23 12:53:16;;;;;;;4.95;1.45;;;;;;;;;;10556083;28;20048;-80
2022/11/23 12:58:20;;;;;;;7.05;3.40;;;;;;;;;;10537084;28;20032;-80
2022/11/23 13:03:21;;;;;;;4.82;1.70;;;;;;;;;;10535359;28;20398;-80
2022/11/23 13:08:45;;;;;;;5.15;1.65;;;;;;;;;;10530941;28;20101;-79
2022/11/23 13:13:58;;;;;;;6.38;1.63;;;;;;;;;;10531920;28;20032;-80
2022/11/23 13:19:21;;;;;;;5.75;1.80;;;;;;;;;;10532092;28;20126;-80
2022/11/23 13:24:33;;;;;;;7.07;1.85;;;;;;;;;;10533370;28;20027;-80
2022/11/23 13:29:49;;;;;;;9.18;1.83;;;;;;;;;;10535458;28;20020;-80
2022/11/23 13:34:50;;;;;;;4.55;1.48;;;;;;;;;;10533321;28;20095;-80
2022/11/23 13:39:51;;;;;;;4.82;1.80;;;;;;;;;;10535161;28;20077;-79
2022/11/23 13:45:11;;;;;;;4.25;1.73;;;;;;;;;;10535052;28;20032;-79
2022/11/23 13:50:21;;;;;;;5.97;1.70;;;;;;;;;;10538687;28;20024;-78
2022/11/23 13:55:31;;;;;;;7.00;1.60;;;;;;;;;;10537700;28;20074;-80
2022/11/23 14:00:44;;;;;;;6.00;1.80;;;;;;;;;;10538448;28;20036;-80
2022/11/23 14:05:48;;;;;;;5.18;1.60;;;;;;;;;;10537283;28;20088;-81
2022/11/23 14:10:50;;;;;;;6.47;1.73;;;;;;;;;;10533979;28;20072;-82
2022/11/23 14:15:54;;;;;;;7.15;3.25;;;;;;;;;;10527114;28;20036;-81
2022/11/23 14:21:02;;;;;;;5.80;2.10;;;;;;;;;;10527176;28;20432;-82
2022/11/23 14:26:03;;;;;;;5.25;2.10;;;;;;;;;;10544666;28;20028;-82
2022/11/23 14:31:07;;;;;;;5.53;1.42;;;;;;;;;;10528821;28;20116;-81
2022/11/23 14:36:11;;;;;;;4.75;1.92;;;;;;;;;;10529317;28;20024;-83
2022/11/23 14:41:27;;;;;;;6.57;2.08;;;;;;;;;;10550057;28;20024;-82
2022/11/23 14:46:28;;;;;;;5.75;2.00;;;;;;;;;;10535773;28;20031;-81
2022/11/23 14:51:29;;;;;;;4.95;1.85;;;;;;;;;;10521580;28;20028;-81
2022/11/23 14:56:31;;;;;;;6.13;2.60;;;;;;;;;;10545534;28;20108;-79
2022/11/23 15:01:32;;;;;;;6.60;2.08;;;;;;;;;;10549043;28;20058;-81
2022/11/23 15:06:33;;;;;;;;;;;;;;;;;;10534666;28;20035;-81
2022/11/23 15:11:36;;;;;;;6.65;2.03;;;;;;;;;;10532251;28;19952;-80
2022/11/23 15:16:41;;;;;;;8.02;2.47;;;;;;;;;;10536147;28;20036;-82
2022/11/23 15:21:44;;;;;;;5.03;2.20;;;;;;;;;;10536856;28;20024;-81
2022/11/23 15:26:45;;;;;;;6.60;2.20;;;;;;;;;;10538420;28;20024;-81
2022/11/23 15:31:46;;;;;;;5.75;2.22;;;;;;;;;;10536850;28;20390;-80
2022/11/23 15:36:47;;;;;;;4.30;1.63;;;;;;;;;;10536170;28;20048;-81
2022/11/23 15:41:49;;;;;;;5.30;1.90;;;;;;;;;;10535740;28;20042;-81
2022/11/23 15:46:52;;;;;;;4.25;1.80;;;;;;;;;;10552963;28;20035;-81
2022/11/23 15:51:59;;;;;;;5.32;2.15;;;;;;;;;;10538089;28;20032;-83
2022/11/23 15:57:00;;;;;;;4.68;1.55;;;;;;;;;;10540888;28;20150;-83
2022/11/23 16:02:01;;;;;;;5.00;1.90;;;;;;;;;;10542165;28;20096;-84
2022/11/23 16:07:22;;;;;;;5.10;1.75;;;;;;;;;;10543927;28;20501;-82
2022/11/23 16:12:24;;;;;;;3.87;1.60;;;;;;;;;;10548074;28;20039;-82
2022/11/23 16:17:27;;;;;;;4.38;1.40;;;;;;;;;;10541269;28;20478;-80
2022/11/23 16:22:29;;;;;;;5.40;1.70;;;;;;;;;;10543765;28;20028;-81
2022/11/23 16:27:30;;;;;;;5.13;1.50;;;;;;;;;;10538174;28;20389;-82
2022/11/23 16:32:32;;;;;;;5.57;1.95;;;;;;;;;;10538806;28;20035;-82
2022/11/23 16:37:33;;;;;;;;;;;;;;;;;;10538203;28;20081;-82
2022/11/23 16:42:34;;;;;;;3.85;1.42;;;;;;;;;;10544212;28;19926;-83
2022/11/23 16:47:35;;;;;;;;;;;;;;;;;;10553183;28;20024;-83
2022/11/23 16:52:43;;;;;;;5.05;2.03;;;;;;;;;;10556989;28;19912;-82
2022/11/23 16:57:44;;;;;;;3.75;1.58;;;;;;;;;;10579200;28;20048;-84
2022/11/23 17:02:45;;;;;;;2.50;1.38;;;;;;;;;;10548865;28;20008;-83
2022/11/23 17:07:46;;;;;;;4.32;1.60;;;;;;;;;;10551827;28;20020;-82
2022/11/23 17:12:51;;;;;;;7.68;2.45;;;;;;;;;;10543017;28;20039;-84
2022/11/23 17:17:53;;;;;;;4.38;1.75;;;;;;;;;;10550181;28;20020;-82
2022/11/23 17:22:58;;;;;;;5.05;2.30;;;;;;;;;;10549981;28;20093;-83
2022/11/23 17:28:00;;;;;;;2.50;1.25;;;;;;;;;;10540823;28;20115;-84
2022/11/23 17:33:01;;;;;;;3.28;1.90;;;;;;;;;;10556217;28;20076;-81
2022/11/23 17:38:06;;;;;;;5.43;1.95;;;;;;;;;;10534939;28;20028;-79
2022/11/23 17:43:32;;;;;;;7.53;2.85;;;;;;;;;;10552511;28;20084;-81
2022/11/23 17:48:35;;;;;;;4.95;1.65;;;;;;;;;;10550639;28;20035;-79
2022/11/23 17:53:36;;;;;;;5.88;1.98;;;;;;;;;;10540037;28;20032;-80
2022/11/23 17:58:37;;;;;;;4.90;1.85;;;;;;;;;;10530491;28;20477;-80
2022/11/23 18:03:38;;;;;;;5.93;1.90;;;;;;;;;;10530469;28;20055;-80
2022/11/23 18:08:39;;;;;;;3.40;1.30;;;;;;;;;;10557864;28;20043;-80
2022/11/23 18:13:41;;;;;;;;;;;;;;;;;;10544158;28;20374;-80
2022/11/23 18:18:42;;;;;;;4.45;1.58;;;;;;;;;;10545712;28;19943;-81
2022/11/23 18:23:43;;;;;;;;;;;;;;;;;;10554839;28;20059;-80
2022/11/23 18:28:44;;;;;;;3.00;1.55;;;;;;;;;;10554867;28;19927;-80
2022/11/23 18:33:47;;;;;;;3.47;1.50;;;;;;;;;;10558746;28;20039;-80
2022/11/23 18:38:48;;;;;;;2.80;1.38;;;;;;;;;;10547139;28;20082;-80
2022/11/23 18:43:49;;;;;;;2.70;1.30;;;;;;;;;;10543182;28;20393;-80
2022/11/23 18:48:50;;;;;;;;;;;;;;;;;;10541846;28;20118;-78
2022/11/23 18:53:54;;;;;;;2.65;1.58;;;;;;;;;;10533485;28;19922;-82
2022/11/23 18:58:55;;;;;;;3.33;1.52;;;;;;;;;;10538372;28;20081;-79
2022/11/23 19:03:56;;;;;;;;;;;;;;;;;;10543536;28;20054;-80
2022/11/23 19:08:57;;;;;;;2.08;1.05;;;;;;;;;;10545420;28;20006;-80
2022/11/23 19:14:00;;;;;;;;;;;;;;;;;;10560097;28;20039;-80
2022/11/23 19:19:04;;;;;;;1.92;1.15;;;;;;;;;;10558510;28;19911;-79
2022/11/23 19:24:06;;;;;;;2.75;1.45;;;;;;;;;;10555007;28;20024;-79
2022/11/23 19:29:07;;;;;;;1.52;0.98;;;;;;;;;;10535481;28;20058;-81
2022/11/23 19:34:09;;;;;;;;;;;;;;;;;;10552116;28;20035;-78
2022/11/23 19:39:10;;;;;;;2.60;1.30;;;;;;;;;;10556902;28;19904;-80
2022/11/23 19:44:12;;;;;;;;;;;;;;;;;;10548732;28;20020;-80
2022/11/23 19:49:13;;;;;;;2.60;1.70;;;;;;;;;;10531220;28;19953;-80
2022/11/23 19:54:14;;;;;;;;;;;;;;;;;;10555525;28;20035;-79
2022/11/23 19:59:15;;;;;;;3.45;1.65;;;;;;;;;;10555320;28;19904;-80
2022/11/23 20:04:16;;;;;;;;;;;;;;;;;;10554925;28;20448;-79
2022/11/23 20:09:22;;;;;;;2.65;1.10;;;;;;;;;;10561171;28;19947;-80
2022/11/23 20:14:23;;;;;;;1.65;1.15;;;;;;;;;;10561992;28;20044;-80
2022/11/23 20:19:24;;;;;;;;;;;;;;;;;;10563986;28;20040;-80
